LFLY/LYN METAR and TAF weather

Enter ICAO airport designator
Station Type Date Time Source
LFLY METAR 2019/06/16 21:00 UTC NOAA

LFLY 162100Z AUTO 34008KT CAVOK 20/12 Q1019 NOSIG


Station Type Date Time Source
LFLY Decoded METAR 2019/06/16 21:00 UTC NOAA

Lyon / Bron, France (LFLY) 45-43N 004-57E 201M
Jun 16, 2019 - 05:00 PM EDT / 2019.06.16 2100 UTC
Wind: from the NNW (340 degrees) at 9 MPH (8 KT):0
Visibility: greater than 7 mile(s):0
Temperature: 68 F (20 C)
Dew Point: 53 F (12 C)
Relative Humidity: 59%
Pressure (altimeter): 30.09 in. Hg (1019 hPa)
ob: LFLY 162100Z AUTO 34008KT CAVOK 20/12 Q1019 NOSIG
cycle: 21

Station Type Date Time Source
LFLY TAF 2019/06/16 18:21 UTC NOAA

TAF LFLY 161700Z 1618/1718 36010KT CAVOK
TEMPO 1702/1706 VRB03KT

Example: see airport list